Current | Forecast
Updated: 12:15 AM CEST on October 21, 2017
Observed at Papa, Hungary
Temperature 9°C
Humidity 93%
Dew Point 8°C
Wind North at 0 km/h
Pressure 1019 hPa (Steady)
Conditions Fog
Visibility 0.3 kilometers
UV N/A
Clouds
Yesterday's Maximum 13°C
Yesterday's Minimum 4°C approx.
Yesterday's Heating Degree Days 18 approx.
Sunrise7:18 AM CEST
Sunset5:52 PM CEST
Moon Rise8:40 AM CEST
Moon Set7:09 PM CEST
Moon PhaseMoon Phase
New Moon
Raw METARMETAR LHPA 202215Z 00000KT 0300 R16/0450D FG VV001 09/08 Q1019 NOSIG RMK RED


Monday
. High: 64° F.
Tuesday
. High: 78° F.
Wednesday
. High: 82° F.
Thursday
. High: 73° F.
Friday
. High: 68° F.
Saturday
. High: 73° F.
Sunday
. High: 82° F.
Monday
. High: 71° F.

Units: English | Metric

Find the Weather for any City, State or Zipcode, or Country:

U.S. State List | Severe Weather | Tropical Storms | Ski Conditions
United States | Canada | Central America | South America | Asia | Europe | Australia | Africa | Islands

Weather Underground

© Copyright 2017
The Weather Company, LLC